sensor_id;sensor_type;location;lat;lon;timestamp;P1;durP1;ratioP1;P2;durP2;ratioP2
64157;SDS011;50449;51.528;5.076;2022-10-23T00:01:25;31.38;;;29.05;;
64157;SDS011;50449;51.528;5.076;2022-10-23T00:03:56;28.77;;;27.08;;
64157;SDS011;50449;51.528;5.076;2022-10-23T00:06:23;30.30;;;28.50;;
64157;SDS011;50449;51.528;5.076;2022-10-23T00:08:50;30.42;;;28.63;;
64157;SDS011;50449;51.528;5.076;2022-10-23T00:11:16;30.60;;;28.55;;
64157;SDS011;50449;51.528;5.076;2022-10-23T00:13:44;29.13;;;27.20;;
64157;SDS011;50449;51.528;5.076;2022-10-23T00:16:10;30.40;;;28.55;;
64157;SDS011;50449;51.528;5.076;2022-10-23T00:18:36;30.30;;;27.60;;
64157;SDS011;50449;51.528;5.076;2022-10-23T00:21:02;33.40;;;31.20;;
64157;SDS011;50449;51.528;5.076;2022-10-23T00:23:28;30.55;;;28.15;;
64157;SDS011;50449;51.528;5.076;2022-10-23T00:25:53;30.83;;;28.75;;
64157;SDS011;50449;51.528;5.076;2022-10-23T00:28:18;31.05;;;29.20;;
64157;SDS011;50449;51.528;5.076;2022-10-23T00:30:44;31.00;;;29.00;;
64157;SDS011;50449;51.528;5.076;2022-10-23T00:33:09;32.50;;;29.90;;
64157;SDS011;50449;51.528;5.076;2022-10-23T00:35:38;31.23;;;28.90;;
64157;SDS011;50449;51.528;5.076;2022-10-23T00:38:04;34.08;;;31.25;;
64157;SDS011;50449;51.528;5.076;2022-10-23T00:40:30;29.92;;;27.67;;
64157;SDS011;50449;51.528;5.076;2022-10-23T00:42:55;29.50;;;27.52;;
64157;SDS011;50449;51.528;5.076;2022-10-23T00:45:22;30.40;;;28.30;;
64157;SDS011;50449;51.528;5.076;2022-10-23T00:47:50;32.20;;;29.88;;
64157;SDS011;50449;51.528;5.076;2022-10-23T00:50:17;30.08;;;28.13;;
64157;SDS011;50449;51.528;5.076;2022-10-23T00:52:47;30.08;;;28.23;;
64157;SDS011;50449;51.528;5.076;2022-10-23T00:55:15;29.92;;;27.88;;
64157;SDS011;50449;51.528;5.076;2022-10-23T00:57:43;30.17;;;28.25;;
64157;SDS011;50449;51.528;5.076;2022-10-23T01:00:13;29.48;;;27.70;;
64157;SDS011;50449;51.528;5.076;2022-10-23T01:02:50;28.77;;;26.92;;
64157;SDS011;50449;51.528;5.076;2022-10-23T01:05:16;30.25;;;28.33;;
64157;SDS011;50449;51.528;5.076;2022-10-23T01:10:28;31.38;;;29.13;;
64157;SDS011;50449;51.528;5.076;2022-10-23T01:20:57;29.85;;;27.63;;
64157;SDS011;50449;51.528;5.076;2022-10-23T01:23:50;28.48;;;26.67;;
64157;SDS011;50449;51.528;5.076;2022-10-23T01:31:41;30.05;;;28.17;;
64157;SDS011;50449;51.528;5.076;2022-10-23T01:34:14;29.55;;;27.55;;
64157;SDS011;50449;51.528;5.076;2022-10-23T01:36:46;31.30;;;29.25;;
64157;SDS011;50449;51.528;5.076;2022-10-23T01:39:18;30.67;;;28.33;;
64157;SDS011;50449;51.528;5.076;2022-10-23T01:41:52;28.33;;;26.63;;
64157;SDS011;50449;51.528;5.076;2022-10-23T01:47:29;28.42;;;26.70;;
64157;SDS011;50449;51.528;5.076;2022-10-23T01:49:58;31.42;;;28.98;;
64157;SDS011;50449;51.528;5.076;2022-10-23T01:52:25;30.75;;;28.70;;
64157;SDS011;50449;51.528;5.076;2022-10-23T01:54:50;31.05;;;28.80;;
64157;SDS011;50449;51.528;5.076;2022-10-23T01:57:19;30.23;;;28.08;;
64157;SDS011;50449;51.528;5.076;2022-10-23T01:59:50;29.30;;;27.02;;
64157;SDS011;50449;51.528;5.076;2022-10-23T02:02:22;29.52;;;27.42;;
64157;SDS011;50449;51.528;5.076;2022-10-23T02:05:07;28.55;;;26.75;;
64157;SDS011;50449;51.528;5.076;2022-10-23T02:07:49;28.70;;;26.30;;
64157;SDS011;50449;51.528;5.076;2022-10-23T02:10:15;30.00;;;27.75;;
64157;SDS011;50449;51.528;5.076;2022-10-23T02:16:18;28.67;;;26.98;;
64157;SDS011;50449;51.528;5.076;2022-10-23T02:18:44;28.75;;;27.10;;
64157;SDS011;50449;51.528;5.076;2022-10-23T02:21:29;29.30;;;27.25;;
64157;SDS011;50449;51.528;5.076;2022-10-23T02:24:00;29.77;;;27.88;;
64157;SDS011;50449;51.528;5.076;2022-10-23T02:26:39;28.35;;;26.65;;
64157;SDS011;50449;51.528;5.076;2022-10-23T02:29:21;30.55;;;27.60;;
64157;SDS011;50449;51.528;5.076;2022-10-23T02:31:52;28.80;;;27.02;;
64157;SDS011;50449;51.528;5.076;2022-10-23T02:34:18;32.08;;;29.27;;
64157;SDS011;50449;51.528;5.076;2022-10-23T02:36:44;28.52;;;26.48;;
64157;SDS011;50449;51.528;5.076;2022-10-23T02:39:09;29.30;;;27.42;;
64157;SDS011;50449;51.528;5.076;2022-10-23T02:41:43;30.10;;;28.20;;
64157;SDS011;50449;51.528;5.076;2022-10-23T02:49:40;29.30;;;27.45;;
64157;SDS011;50449;51.528;5.076;2022-10-23T02:55:02;27.60;;;26.00;;
64157;SDS011;50449;51.528;5.076;2022-10-23T02:57:49;28.33;;;26.63;;
64157;SDS011;50449;51.528;5.076;2022-10-23T03:00:36;28.42;;;26.30;;
64157;SDS011;50449;51.528;5.076;2022-10-23T03:03:40;28.73;;;26.75;;
64157;SDS011;50449;51.528;5.076;2022-10-23T03:06:01;27.40;;;25.80;;
64157;SDS011;50449;51.528;5.076;2022-10-23T03:08:27;30.50;;;28.40;;
64157;SDS011;50449;51.528;5.076;2022-10-23T03:10:53;29.42;;;27.40;;
64157;SDS011;50449;51.528;5.076;2022-10-23T03:13:18;27.83;;;26.02;;
64157;SDS011;50449;51.528;5.076;2022-10-23T03:15:43;28.63;;;26.83;;
64157;SDS011;50449;51.528;5.076;2022-10-23T03:18:09;28.92;;;27.20;;
64157;SDS011;50449;51.528;5.076;2022-10-23T03:20:34;29.80;;;28.00;;
64157;SDS011;50449;51.528;5.076;2022-10-23T03:23:00;29.20;;;27.23;;
64157;SDS011;50449;51.528;5.076;2022-10-23T03:25:25;30.17;;;28.13;;
64157;SDS011;50449;51.528;5.076;2022-10-23T03:27:51;28.58;;;26.48;;
64157;SDS011;50449;51.528;5.076;2022-10-23T03:30:16;28.10;;;26.40;;
64157;SDS011;50449;51.528;5.076;2022-10-23T03:32:42;28.67;;;26.60;;
64157;SDS011;50449;51.528;5.076;2022-10-23T03:35:08;28.42;;;26.42;;
64157;SDS011;50449;51.528;5.076;2022-10-23T03:37:33;29.58;;;27.15;;
64157;SDS011;50449;51.528;5.076;2022-10-23T03:39:58;29.23;;;27.40;;
64157;SDS011;50449;51.528;5.076;2022-10-23T03:42:24;29.48;;;27.58;;
64157;SDS011;50449;51.528;5.076;2022-10-23T03:44:49;29.17;;;27.13;;
64157;SDS011;50449;51.528;5.076;2022-10-23T03:47:15;30.05;;;27.70;;
64157;SDS011;50449;51.528;5.076;2022-10-23T03:49:40;28.95;;;27.00;;
64157;SDS011;50449;51.528;5.076;2022-10-23T03:52:06;27.70;;;26.20;;
64157;SDS011;50449;51.528;5.076;2022-10-23T03:54:31;30.25;;;28.20;;
64157;SDS011;50449;51.528;5.076;2022-10-23T03:56:58;29.13;;;27.15;;
64157;SDS011;50449;51.528;5.076;2022-10-23T03:59:23;29.38;;;27.25;;
64157;SDS011;50449;51.528;5.076;2022-10-23T04:01:49;28.02;;;26.40;;
64157;SDS011;50449;51.528;5.076;2022-10-23T04:04:14;28.58;;;26.80;;
64157;SDS011;50449;51.528;5.076;2022-10-23T04:06:40;28.65;;;26.55;;
64157;SDS011;50449;51.528;5.076;2022-10-23T04:09:06;28.08;;;26.33;;
64157;SDS011;50449;51.528;5.076;2022-10-23T04:11:31;28.60;;;26.08;;
64157;SDS011;50449;51.528;5.076;2022-10-23T04:13:57;29.73;;;27.73;;
64157;SDS011;50449;51.528;5.076;2022-10-23T04:16:23;29.45;;;27.27;;
64157;SDS011;50449;51.528;5.076;2022-10-23T04:18:49;28.50;;;26.80;;
64157;SDS011;50449;51.528;5.076;2022-10-23T04:21:14;27.58;;;25.98;;
64157;SDS011;50449;51.528;5.076;2022-10-23T04:23:40;28.70;;;26.35;;
64157;SDS011;50449;51.528;5.076;2022-10-23T04:26:06;28.85;;;27.08;;
64157;SDS011;50449;51.528;5.076;2022-10-23T04:28:31;29.73;;;27.38;;
64157;SDS011;50449;51.528;5.076;2022-10-23T04:30:57;29.45;;;27.40;;
64157;SDS011;50449;51.528;5.076;2022-10-23T04:33:23;28.70;;;26.13;;
64157;SDS011;50449;51.528;5.076;2022-10-23T04:35:48;27.40;;;25.80;;
64157;SDS011;50449;51.528;5.076;2022-10-23T04:38:14;28.77;;;26.92;;
64157;SDS011;50449;51.528;5.076;2022-10-23T04:40:39;29.40;;;27.17;;
64157;SDS011;50449;51.528;5.076;2022-10-23T04:43:05;29.00;;;27.20;;
64157;SDS011;50449;51.528;5.076;2022-10-23T04:45:30;28.30;;;26.50;;
64157;SDS011;50449;51.528;5.076;2022-10-23T04:47:55;27.95;;;26.40;;
64157;SDS011;50449;51.528;5.076;2022-10-23T04:50:21;28.73;;;27.02;;
64157;SDS011;50449;51.528;5.076;2022-10-23T04:52:47;27.90;;;26.20;;
64157;SDS011;50449;51.528;5.076;2022-10-23T04:55:12;27.65;;;25.77;;
64157;SDS011;50449;51.528;5.076;2022-10-23T04:57:38;30.60;;;28.63;;
64157;SDS011;50449;51.528;5.076;2022-10-23T05:00:04;29.50;;;27.52;;
64157;SDS011;50449;51.528;5.076;2022-10-23T05:02:31;29.65;;;27.45;;
64157;SDS011;50449;51.528;5.076;2022-10-23T05:04:57;28.45;;;26.63;;
64157;SDS011;50449;51.528;5.076;2022-10-23T05:07:22;28.17;;;26.08;;
64157;SDS011;50449;51.528;5.076;2022-10-23T05:09:47;27.70;;;26.10;;
64157;SDS011;50449;51.528;5.076;2022-10-23T05:12:13;28.60;;;26.73;;
64157;SDS011;50449;51.528;5.076;2022-10-23T05:14:38;31.35;;;29.17;;
64157;SDS011;50449;51.528;5.076;2022-10-23T05:19:56;27.48;;;25.88;;
64157;SDS011;50449;51.528;5.076;2022-10-23T05:22:24;28.83;;;26.80;;
64157;SDS011;50449;51.528;5.076;2022-10-23T05:24:54;27.15;;;25.55;;
64157;SDS011;50449;51.528;5.076;2022-10-23T05:27:19;27.67;;;25.75;;
64157;SDS011;50449;51.528;5.076;2022-10-23T05:29:44;28.80;;;26.80;;
64157;SDS011;50449;51.528;5.076;2022-10-23T05:32:10;29.23;;;27.35;;
64157;SDS011;50449;51.528;5.076;2022-10-23T05:34:38;28.90;;;27.03;;
64157;SDS011;50449;51.528;5.076;2022-10-23T05:37:05;28.95;;;26.95;;
64157;SDS011;50449;51.528;5.076;2022-10-23T05:39:33;27.67;;;25.73;;
64157;SDS011;50449;51.528;5.076;2022-10-23T05:41:59;28.13;;;26.08;;
64157;SDS011;50449;51.528;5.076;2022-10-23T05:44:24;28.08;;;26.35;;
64157;SDS011;50449;51.528;5.076;2022-10-23T05:46:49;28.25;;;26.50;;
64157;SDS011;50449;51.528;5.076;2022-10-23T05:49:15;29.95;;;27.50;;
64157;SDS011;50449;51.528;5.076;2022-10-23T05:51:40;29.17;;;26.98;;
64157;SDS011;50449;51.528;5.076;2022-10-23T05:54:06;27.80;;;26.10;;
64157;SDS011;50449;51.528;5.076;2022-10-23T05:56:36;27.85;;;25.92;;
64157;SDS011;50449;51.528;5.076;2022-10-23T05:59:03;27.60;;;25.90;;
64157;SDS011;50449;51.528;5.076;2022-10-23T06:01:28;28.13;;;26.52;;
64157;SDS011;50449;51.528;5.076;2022-10-23T06:03:54;28.13;;;26.33;;
64157;SDS011;50449;51.528;5.076;2022-10-23T06:06:19;29.40;;;27.40;;
64157;SDS011;50449;51.528;5.076;2022-10-23T06:08:45;29.30;;;27.38;;
64157;SDS011;50449;51.528;5.076;2022-10-23T06:11:11;28.27;;;26.17;;
64157;SDS011;50449;51.528;5.076;2022-10-23T06:13:40;28.27;;;26.65;;
64157;SDS011;50449;51.528;5.076;2022-10-23T06:16:10;28.50;;;26.42;;
64157;SDS011;50449;51.528;5.076;2022-10-23T06:18:37;27.48;;;25.83;;
64157;SDS011;50449;51.528;5.076;2022-10-23T06:21:03;28.20;;;26.30;;
64157;SDS011;50449;51.528;5.076;2022-10-23T06:23:30;28.10;;;25.90;;
64157;SDS011;50449;51.528;5.076;2022-10-23T06:25:58;28.63;;;26.77;;
64157;SDS011;50449;51.528;5.076;2022-10-23T06:28:24;28.00;;;26.30;;
64157;SDS011;50449;51.528;5.076;2022-10-23T06:30:50;29.02;;;26.98;;
64157;SDS011;50449;51.528;5.076;2022-10-23T06:33:15;28.75;;;26.90;;
64157;SDS011;50449;51.528;5.076;2022-10-23T06:35:40;30.00;;;28.10;;
64157;SDS011;50449;51.528;5.076;2022-10-23T06:38:06;28.50;;;26.45;;
64157;SDS011;50449;51.528;5.076;2022-10-23T06:40:33;28.17;;;26.48;;
64157;SDS011;50449;51.528;5.076;2022-10-23T06:42:58;27.45;;;25.77;;
64157;SDS011;50449;51.528;5.076;2022-10-23T06:45:24;27.95;;;25.95;;
64157;SDS011;50449;51.528;5.076;2022-10-23T06:47:49;27.48;;;25.80;;
64157;SDS011;50449;51.528;5.076;2022-10-23T06:50:15;27.63;;;25.40;;
64157;SDS011;50449;51.528;5.076;2022-10-23T06:52:41;27.90;;;26.30;;
64157;SDS011;50449;51.528;5.076;2022-10-23T06:55:06;27.88;;;26.05;;
64157;SDS011;50449;51.528;5.076;2022-10-23T06:57:32;32.03;;;26.80;;
64157;SDS011;50449;51.528;5.076;2022-10-23T06:59:57;29.77;;;27.77;;
64157;SDS011;50449;51.528;5.076;2022-10-23T07:02:23;27.45;;;25.95;;
64157;SDS011;50449;51.528;5.076;2022-10-23T07:04:48;28.15;;;26.23;;
64157;SDS011;50449;51.528;5.076;2022-10-23T07:07:13;28.08;;;26.38;;
64157;SDS011;50449;51.528;5.076;2022-10-23T07:09:39;29.10;;;27.20;;
64157;SDS011;50449;51.528;5.076;2022-10-23T07:12:04;27.67;;;26.15;;
64157;SDS011;50449;51.528;5.076;2022-10-23T07:14:30;28.35;;;26.20;;
64157;SDS011;50449;51.528;5.076;2022-10-23T07:16:56;31.30;;;28.15;;
64157;SDS011;50449;51.528;5.076;2022-10-23T07:19:22;28.20;;;26.48;;
64157;SDS011;50449;51.528;5.076;2022-10-23T07:21:47;29.83;;;27.52;;
64157;SDS011;50449;51.528;5.076;2022-10-23T07:24:12;27.98;;;25.73;;
64157;SDS011;50449;51.528;5.076;2022-10-23T07:26:38;27.13;;;25.13;;
64157;SDS011;50449;51.528;5.076;2022-10-23T07:29:03;26.95;;;25.15;;
64157;SDS011;50449;51.528;5.076;2022-10-23T07:31:29;27.52;;;25.85;;
64157;SDS011;50449;51.528;5.076;2022-10-23T07:33:54;28.23;;;26.30;;
64157;SDS011;50449;51.528;5.076;2022-10-23T07:36:19;27.45;;;25.67;;
64157;SDS011;50449;51.528;5.076;2022-10-23T07:38:45;29.35;;;27.00;;
64157;SDS011;50449;51.528;5.076;2022-10-23T07:41:10;26.25;;;24.45;;
64157;SDS011;50449;51.528;5.076;2022-10-23T07:43:37;27.17;;;24.58;;
64157;SDS011;50449;51.528;5.076;2022-10-23T07:46:02;26.70;;;24.98;;
64157;SDS011;50449;51.528;5.076;2022-10-23T07:48:28;27.92;;;25.27;;
64157;SDS011;50449;51.528;5.076;2022-10-23T07:50:58;29.25;;;27.40;;
64157;SDS011;50449;51.528;5.076;2022-10-23T07:53:31;26.40;;;24.70;;
64157;SDS011;50449;51.528;5.076;2022-10-23T07:55:58;27.63;;;25.73;;
64157;SDS011;50449;51.528;5.076;2022-10-23T07:58:28;29.23;;;26.52;;
64157;SDS011;50449;51.528;5.076;2022-10-23T08:00:56;26.83;;;25.08;;
64157;SDS011;50449;51.528;5.076;2022-10-23T08:03:32;26.92;;;25.00;;
64157;SDS011;50449;51.528;5.076;2022-10-23T08:05:58;27.38;;;25.30;;
64157;SDS011;50449;51.528;5.076;2022-10-23T08:08:24;25.20;;;23.63;;
64157;SDS011;50449;51.528;5.076;2022-10-23T08:10:50;27.23;;;25.35;;
64157;SDS011;50449;51.528;5.076;2022-10-23T08:13:17;25.80;;;24.10;;
64157;SDS011;50449;51.528;5.076;2022-10-23T08:15:44;28.05;;;26.42;;
64157;SDS011;50449;51.528;5.076;2022-10-23T08:18:11;27.17;;;24.83;;
64157;SDS011;50449;51.528;5.076;2022-10-23T08:20:39;27.20;;;25.05;;
64157;SDS011;50449;51.528;5.076;2022-10-23T08:23:06;26.65;;;25.05;;
64157;SDS011;50449;51.528;5.076;2022-10-23T08:25:32;26.20;;;24.60;;
64157;SDS011;50449;51.528;5.076;2022-10-23T08:27:58;28.52;;;26.40;;
64157;SDS011;50449;51.528;5.076;2022-10-23T08:30:24;26.52;;;24.77;;
64157;SDS011;50449;51.528;5.076;2022-10-23T08:32:50;28.77;;;26.88;;
64157;SDS011;50449;51.528;5.076;2022-10-23T08:35:15;27.55;;;25.85;;
64157;SDS011;50449;51.528;5.076;2022-10-23T08:37:40;26.33;;;24.30;;
64157;SDS011;50449;51.528;5.076;2022-10-23T08:40:06;25.63;;;24.02;;
64157;SDS011;50449;51.528;5.076;2022-10-23T08:42:32;27.75;;;25.10;;
64157;SDS011;50449;51.528;5.076;2022-10-23T08:47:50;27.15;;;25.50;;
64157;SDS011;50449;51.528;5.076;2022-10-23T08:50:24;26.92;;;25.02;;
64157;SDS011;50449;51.528;5.076;2022-10-23T08:52:58;26.85;;;25.17;;
64157;SDS011;50449;51.528;5.076;2022-10-23T08:55:32;27.25;;;25.50;;
64157;SDS011;50449;51.528;5.076;2022-10-23T08:58:05;27.80;;;25.58;;
64157;SDS011;50449;51.528;5.076;2022-10-23T09:00:34;26.63;;;25.00;;
64157;SDS011;50449;51.528;5.076;2022-10-23T09:03:01;28.48;;;26.50;;
64157;SDS011;50449;51.528;5.076;2022-10-23T09:10:36;27.85;;;26.17;;
64157;SDS011;50449;51.528;5.076;2022-10-23T09:13:29;24.95;;;23.42;;
64157;SDS011;50449;51.528;5.076;2022-10-23T09:16:23;26.60;;;25.02;;
64157;SDS011;50449;51.528;5.076;2022-10-23T09:18:56;26.52;;;24.88;;
64157;SDS011;50449;51.528;5.076;2022-10-23T09:21:28;25.40;;;24.00;;
64157;SDS011;50449;51.528;5.076;2022-10-23T09:23:54;26.17;;;24.60;;
64157;SDS011;50449;51.528;5.076;2022-10-23T09:26:20;30.95;;;28.48;;
64157;SDS011;50449;51.528;5.076;2022-10-23T09:28:47;27.75;;;25.90;;
64157;SDS011;50449;51.528;5.076;2022-10-23T09:31:13;25.92;;;24.23;;
64157;SDS011;50449;51.528;5.076;2022-10-23T09:33:40;26.70;;;25.10;;
64157;SDS011;50449;51.528;5.076;2022-10-23T09:36:17;28.10;;;26.08;;
64157;SDS011;50449;51.528;5.076;2022-10-23T09:47:16;28.50;;;26.70;;
64157;SDS011;50449;51.528;5.076;2022-10-23T09:49:47;28.23;;;26.27;;
64157;SDS011;50449;51.528;5.076;2022-10-23T09:52:24;27.23;;;25.42;;
64157;SDS011;50449;51.528;5.076;2022-10-23T09:54:57;28.27;;;26.38;;
64157;SDS011;50449;51.528;5.076;2022-10-23T09:57:28;26.50;;;24.92;;
64157;SDS011;50449;51.528;5.076;2022-10-23T09:59:54;28.98;;;27.02;;
64157;SDS011;50449;51.528;5.076;2022-10-23T10:02:32;28.73;;;26.02;;
64157;SDS011;50449;51.528;5.076;2022-10-23T10:05:10;27.77;;;25.63;;
64157;SDS011;50449;51.528;5.076;2022-10-23T10:07:55;28.45;;;26.50;;
64157;SDS011;50449;51.528;5.076;2022-10-23T10:10:28;28.38;;;26.55;;
64157;SDS011;50449;51.528;5.076;2022-10-23T10:13:00;29.25;;;27.17;;
64157;SDS011;50449;51.528;5.076;2022-10-23T10:23:27;28.90;;;26.65;;
64157;SDS011;50449;51.528;5.076;2022-10-23T10:28:58;28.10;;;26.40;;
64157;SDS011;50449;51.528;5.076;2022-10-23T10:34:50;27.95;;;25.95;;
64157;SDS011;50449;51.528;5.076;2022-10-23T10:42:54;26.00;;;24.35;;
64157;SDS011;50449;51.528;5.076;2022-10-23T10:45:40;27.00;;;25.13;;
64157;SDS011;50449;51.528;5.076;2022-10-23T10:54:09;27.88;;;26.00;;
64157;SDS011;50449;51.528;5.076;2022-10-23T10:56:50;29.08;;;27.15;;
64157;SDS011;50449;51.528;5.076;2022-10-23T10:59:19;29.92;;;27.55;;
64157;SDS011;50449;51.528;5.076;2022-10-23T11:01:54;28.48;;;26.13;;
64157;SDS011;50449;51.528;5.076;2022-10-23T11:06:58;29.20;;;27.45;;
64157;SDS011;50449;51.528;5.076;2022-10-23T11:09:29;27.77;;;26.17;;
64157;SDS011;50449;51.528;5.076;2022-10-23T11:11:55;28.63;;;26.75;;
64157;SDS011;50449;51.528;5.076;2022-10-23T11:14:22;28.27;;;26.27;;
64157;SDS011;50449;51.528;5.076;2022-10-23T11:16:53;29.52;;;27.77;;
64157;SDS011;50449;51.528;5.076;2022-10-23T11:19:33;28.20;;;26.60;;
64157;SDS011;50449;51.528;5.076;2022-10-23T11:22:07;29.42;;;27.10;;
64157;SDS011;50449;51.528;5.076;2022-10-23T11:32:44;28.13;;;26.13;;
64157;SDS011;50449;51.528;5.076;2022-10-23T11:35:22;29.45;;;27.42;;
64157;SDS011;50449;51.528;5.076;2022-10-23T11:40:48;29.63;;;27.88;;
64157;SDS011;50449;51.528;5.076;2022-10-23T11:43:30;30.45;;;28.67;;
64157;SDS011;50449;51.528;5.076;2022-10-23T11:45:58;28.13;;;26.42;;
64157;SDS011;50449;51.528;5.076;2022-10-23T11:48:36;26.73;;;25.17;;
64157;SDS011;50449;51.528;5.076;2022-10-23T11:51:04;28.75;;;26.48;;
64157;SDS011;50449;51.528;5.076;2022-10-23T11:55:56;29.80;;;27.80;;
64157;SDS011;50449;51.528;5.076;2022-10-23T11:58:22;30.42;;;28.58;;
64157;SDS011;50449;51.528;5.076;2022-10-23T12:03:34;30.65;;;28.65;;
64157;SDS011;50449;51.528;5.076;2022-10-23T12:06:05;30.20;;;28.42;;
64157;SDS011;50449;51.528;5.076;2022-10-23T12:08:34;27.60;;;25.80;;
64157;SDS011;50449;51.528;5.076;2022-10-23T12:11:03;28.77;;;27.05;;
64157;SDS011;50449;51.528;5.076;2022-10-23T12:16:01;30.17;;;28.05;;
64157;SDS011;50449;51.528;5.076;2022-10-23T12:18:29;29.83;;;27.92;;
64157;SDS011;50449;51.528;5.076;2022-10-23T12:20:58;31.98;;;29.77;;
64157;SDS011;50449;51.528;5.076;2022-10-23T12:23:32;32.33;;;30.10;;
64157;SDS011;50449;51.528;5.076;2022-10-23T12:28:50;30.63;;;28.50;;
64157;SDS011;50449;51.528;5.076;2022-10-23T12:31:24;30.75;;;28.92;;
64157;SDS011;50449;51.528;5.076;2022-10-23T12:37:11;31.65;;;29.48;;
64157;SDS011;50449;51.528;5.076;2022-10-23T12:39:53;30.55;;;28.35;;
64157;SDS011;50449;51.528;5.076;2022-10-23T12:42:21;33.28;;;30.75;;
64157;SDS011;50449;51.528;5.076;2022-10-23T12:47:27;32.78;;;30.77;;
64157;SDS011;50449;51.528;5.076;2022-10-23T12:49:54;32.10;;;30.20;;
64157;SDS011;50449;51.528;5.076;2022-10-23T12:52:19;31.98;;;30.08;;
64157;SDS011;50449;51.528;5.076;2022-10-23T12:54:46;31.08;;;29.27;;
64157;SDS011;50449;51.528;5.076;2022-10-23T12:57:21;31.60;;;29.80;;
64157;SDS011;50449;51.528;5.076;2022-10-23T12:59:50;30.80;;;28.83;;
64157;SDS011;50449;51.528;5.076;2022-10-23T13:02:22;29.45;;;27.70;;
64157;SDS011;50449;51.528;5.076;2022-10-23T13:04:50;31.40;;;29.35;;
64157;SDS011;50449;51.528;5.076;2022-10-23T13:07:18;31.67;;;29.57;;
64157;SDS011;50449;51.528;5.076;2022-10-23T13:09:47;31.10;;;29.30;;
64157;SDS011;50449;51.528;5.076;2022-10-23T13:17:20;32.22;;;29.67;;
64157;SDS011;50449;51.528;5.076;2022-10-23T13:20:06;32.45;;;30.63;;
64157;SDS011;50449;51.528;5.076;2022-10-23T13:22:55;32.60;;;30.63;;
64157;SDS011;50449;51.528;5.076;2022-10-23T13:25:32;31.40;;;29.48;;
64157;SDS011;50449;51.528;5.076;2022-10-23T13:28:13;32.38;;;30.25;;
64157;SDS011;50449;51.528;5.076;2022-10-23T13:33:44;30.70;;;28.70;;
64157;SDS011;50449;51.528;5.076;2022-10-23T13:38:45;33.10;;;31.05;;
64157;SDS011;50449;51.528;5.076;2022-10-23T13:41:23;32.13;;;30.02;;
64157;SDS011;50449;51.528;5.076;2022-10-23T13:43:50;33.83;;;31.73;;
64157;SDS011;50449;51.528;5.076;2022-10-23T13:46:16;33.72;;;31.80;;
64157;SDS011;50449;51.528;5.076;2022-10-23T13:48:43;33.03;;;30.90;;
64157;SDS011;50449;51.528;5.076;2022-10-23T13:51:12;32.90;;;30.40;;
64157;SDS011;50449;51.528;5.076;2022-10-23T13:53:46;33.08;;;30.73;;
64157;SDS011;50449;51.528;5.076;2022-10-23T13:56:13;34.08;;;31.63;;
64157;SDS011;50449;51.528;5.076;2022-10-23T13:58:40;32.47;;;30.63;;
64157;SDS011;50449;51.528;5.076;2022-10-23T14:01:08;32.80;;;30.65;;
64157;SDS011;50449;51.528;5.076;2022-10-23T14:03:43;32.33;;;30.53;;
64157;SDS011;50449;51.528;5.076;2022-10-23T14:06:09;33.05;;;30.95;;
64157;SDS011;50449;51.528;5.076;2022-10-23T14:08:34;34.30;;;32.03;;
64157;SDS011;50449;51.528;5.076;2022-10-23T14:10:59;33.88;;;31.40;;
64157;SDS011;50449;51.528;5.076;2022-10-23T14:13:25;33.40;;;31.50;;
64157;SDS011;50449;51.528;5.076;2022-10-23T14:15:53;32.90;;;30.88;;
64157;SDS011;50449;51.528;5.076;2022-10-23T14:20:44;32.78;;;30.85;;
64157;SDS011;50449;51.528;5.076;2022-10-23T14:23:10;33.05;;;30.05;;
64157;SDS011;50449;51.528;5.076;2022-10-23T14:25:35;33.97;;;31.88;;
64157;SDS011;50449;51.528;5.076;2022-10-23T14:28:01;33.35;;;31.20;;
64157;SDS011;50449;51.528;5.076;2022-10-23T14:30:26;33.20;;;31.08;;
64157;SDS011;50449;51.528;5.076;2022-10-23T14:32:51;34.25;;;32.25;;
64157;SDS011;50449;51.528;5.076;2022-10-23T14:35:17;34.45;;;31.63;;
64157;SDS011;50449;51.528;5.076;2022-10-23T14:37:42;34.28;;;32.17;;
64157;SDS011;50449;51.528;5.076;2022-10-23T14:40:08;36.45;;;34.08;;
64157;SDS011;50449;51.528;5.076;2022-10-23T14:42:33;34.63;;;32.13;;
64157;SDS011;50449;51.528;5.076;2022-10-23T14:44:59;33.10;;;30.90;;
64157;SDS011;50449;51.528;5.076;2022-10-23T14:47:26;35.85;;;33.55;;
64157;SDS011;50449;51.528;5.076;2022-10-23T14:49:52;35.80;;;33.60;;
64157;SDS011;50449;51.528;5.076;2022-10-23T14:52:17;36.75;;;34.13;;
64157;SDS011;50449;51.528;5.076;2022-10-23T14:54:43;35.45;;;32.42;;
64157;SDS011;50449;51.528;5.076;2022-10-23T14:57:08;35.22;;;32.83;;
64157;SDS011;50449;51.528;5.076;2022-10-23T14:59:36;36.70;;;34.30;;
64157;SDS011;50449;51.528;5.076;2022-10-23T15:02:01;33.33;;;31.45;;
64157;SDS011;50449;51.528;5.076;2022-10-23T15:04:26;34.55;;;32.33;;
64157;SDS011;50449;51.528;5.076;2022-10-23T15:06:52;33.42;;;31.38;;
64157;SDS011;50449;51.528;5.076;2022-10-23T15:09:17;34.92;;;33.03;;
64157;SDS011;50449;51.528;5.076;2022-10-23T15:11:44;35.47;;;33.58;;
64157;SDS011;50449;51.528;5.076;2022-10-23T15:14:10;34.40;;;32.28;;
64157;SDS011;50449;51.528;5.076;2022-10-23T15:16:36;34.65;;;32.33;;
64157;SDS011;50449;51.528;5.076;2022-10-23T15:19:06;30.33;;;28.52;;
64157;SDS011;50449;51.528;5.076;2022-10-23T15:21:32;37.85;;;34.40;;
64157;SDS011;50449;51.528;5.076;2022-10-23T15:23:58;35.78;;;33.42;;
64157;SDS011;50449;51.528;5.076;2022-10-23T15:26:24;34.15;;;31.80;;
64157;SDS011;50449;51.528;5.076;2022-10-23T15:28:53;35.50;;;33.15;;
64157;SDS011;50449;51.528;5.076;2022-10-23T15:33:54;35.50;;;32.80;;
64157;SDS011;50449;51.528;5.076;2022-10-23T15:36:21;32.38;;;30.60;;
64157;SDS011;50449;51.528;5.076;2022-10-23T15:38:47;36.00;;;33.47;;
64157;SDS011;50449;51.528;5.076;2022-10-23T15:41:14;34.95;;;32.97;;
64157;SDS011;50449;51.528;5.076;2022-10-23T15:43:45;35.53;;;33.42;;
64157;SDS011;50449;51.528;5.076;2022-10-23T15:46:11;35.78;;;33.67;;
64157;SDS011;50449;51.528;5.076;2022-10-23T15:48:36;36.83;;;34.08;;
64157;SDS011;50449;51.528;5.076;2022-10-23T15:51:02;34.55;;;32.00;;
64157;SDS011;50449;51.528;5.076;2022-10-23T15:53:27;32.95;;;30.60;;
64157;SDS011;50449;51.528;5.076;2022-10-23T15:55:53;34.42;;;32.17;;
64157;SDS011;50449;51.528;5.076;2022-10-23T15:58:19;33.50;;;31.63;;
64157;SDS011;50449;51.528;5.076;2022-10-23T16:00:44;35.85;;;33.85;;
64157;SDS011;50449;51.528;5.076;2022-10-23T16:03:10;34.92;;;32.72;;
64157;SDS011;50449;51.528;5.076;2022-10-23T16:05:35;37.80;;;35.40;;
64157;SDS011;50449;51.528;5.076;2022-10-23T16:08:01;34.83;;;32.85;;
64157;SDS011;50449;51.528;5.076;2022-10-23T16:10:26;35.95;;;33.33;;
64157;SDS011;50449;51.528;5.076;2022-10-23T16:12:52;35.20;;;32.95;;
64157;SDS011;50449;51.528;5.076;2022-10-23T16:15:17;35.42;;;33.10;;
64157;SDS011;50449;51.528;5.076;2022-10-23T16:17:43;36.83;;;34.38;;
64157;SDS011;50449;51.528;5.076;2022-10-23T16:20:08;35.47;;;33.03;;
64157;SDS011;50449;51.528;5.076;2022-10-23T16:22:34;35.78;;;33.45;;
64157;SDS011;50449;51.528;5.076;2022-10-23T16:25:00;35.10;;;33.20;;
64157;SDS011;50449;51.528;5.076;2022-10-23T16:27:25;35.90;;;33.58;;
64157;SDS011;50449;51.528;5.076;2022-10-23T16:29:51;34.47;;;31.50;;